Time;durP1;ratioP1;P1;durP2;ratioP2;P2;SDS_P1;SDS_P2;PMS_P1;PMS_P2;Temp;Humidity;BMP_temperature;BMP_pressure;BME280_temperature;BME280_humidity;BME280_pressure;Samples;Min_cycle;Max_cycle;Signal;HPM_P1;HPM_P2
2023/01/07 00:01:33;;;;;;;1.55;1.20;;;17.80;59.20;;;;;;5052034;28;20207;-62
2023/01/07 00:03:59;;;;;;;1.45;1.10;;;17.80;59.20;;;;;;5053011;28;20253;-62
2023/01/07 00:06:43;;;;;;;1.30;1.20;;;17.80;59.20;;;;;;5052728;28;20685;-62
2023/01/07 00:09:12;;;;;;;0.90;0.90;;;17.80;59.20;;;;;;5052029;28;20171;-62
2023/01/07 00:11:38;;;;;;;0.93;0.93;;;17.80;59.20;;;;;;5052447;28;20660;-62
2023/01/07 00:14:05;;;;;;;1.00;1.00;;;17.80;59.20;;;;;;5052622;28;20218;-62
2023/01/07 00:16:31;;;;;;;1.17;1.17;;;17.80;59.90;;;;;;5052206;28;20185;-62
2023/01/07 00:18:58;;;;;;;1.10;1.08;;;17.80;59.80;;;;;;5052572;28;20227;-62
2023/01/07 00:21:24;;;;;;;1.33;1.23;;;17.80;59.20;;;;;;5052458;28;20171;-62
2023/01/07 00:23:53;;;;;;;1.48;1.23;;;17.80;59.20;;;;;;5051780;28;20190;-62
2023/01/07 00:26:19;;;;;;;1.58;1.23;;;17.80;59.20;;;;;;5052905;28;20186;-62
2023/01/07 00:28:46;;;;;;;1.20;1.10;;;17.80;59.20;;;;;;5051756;28;20182;-62
2023/01/07 00:31:20;;;;;;;1.17;1.00;;;17.80;59.20;;;;;;5052465;28;20181;-62
2023/01/07 00:36:28;;;;;;;1.40;1.27;;;17.80;59.20;;;;;;5051860;28;20190;-62
2023/01/07 00:39:00;;;;;;;1.10;1.10;;;17.80;59.20;;;;;;5052148;28;20214;-63
2023/01/07 00:41:26;;;;;;;1.50;1.13;;;17.80;59.20;;;;;;5052755;28;20183;-62
2023/01/07 00:43:52;;;;;;;1.48;1.38;;;17.80;59.20;;;;;;5051561;28;20178;-62
2023/01/07 00:46:17;;;;;;;1.42;1.33;;;17.80;59.20;;;;;;5052502;28;20175;-62
2023/01/07 00:48:46;;;;;;;1.20;1.20;;;17.70;59.20;;;;;;5052421;28;20207;-62
2023/01/07 00:51:12;;;;;;;1.10;1.10;;;17.70;59.20;;;;;;5055395;28;20213;-62
2023/01/07 00:53:38;;;;;;;1.35;0.88;;;17.80;59.20;;;;;;5056040;28;20286;-62
2023/01/07 00:56:03;;;;;;;1.35;1.25;;;17.80;59.20;;;;;;5056016;28;20310;-62
2023/01/07 00:58:30;;;;;;;1.40;1.30;;;17.80;59.20;;;;;;5055717;28;20167;-62
2023/01/07 01:00:56;;;;;;;1.20;1.10;;;17.70;59.20;;;;;;5056028;28;20228;-62
2023/01/07 01:03:22;;;;;;;1.30;1.10;;;17.70;59.20;;;;;;5055924;28;20958;-62
2023/01/07 01:05:47;;;;;;;0.95;0.93;;;17.70;59.10;;;;;;5055048;28;20187;-62
2023/01/07 01:08:13;;;;;;;1.95;0.88;;;17.70;59.10;;;;;;5055941;28;20177;-62
2023/01/07 01:10:38;;;;;;;1.40;1.30;;;17.70;59.10;;;;;;5055533;28;20266;-62
2023/01/07 01:13:04;;;;;;;1.17;1.13;;;17.70;59.10;;;;;;5055461;28;20297;-62
2023/01/07 01:15:30;;;;;;;1.20;1.10;;;17.70;59.10;;;;;;5055734;28;20301;-62
2023/01/07 01:17:55;;;;;;;1.17;1.17;;;17.70;59.10;;;;;;5055607;28;20171;-63
2023/01/07 01:20:21;;;;;;;1.40;1.30;;;17.70;59.10;;;;;;5055124;28;20265;-63
2023/01/07 01:22:46;;;;;;;1.27;1.17;;;17.70;59.10;;;;;;5055638;28;20176;-62
2023/01/07 01:25:12;;;;;;;1.10;0.90;;;17.70;59.10;;;;;;5055076;28;20233;-62
2023/01/07 01:27:37;;;;;;;1.27;1.20;;;17.70;59.10;;;;;;5055451;28;20164;-62
2023/01/07 01:30:04;;;;;;;1.30;1.20;;;17.70;59.10;;;;;;5055409;28;20179;-62
2023/01/07 01:32:30;;;;;;;1.23;1.13;;;17.70;59.10;;;;;;5054764;28;20198;-62
2023/01/07 01:34:55;;;;;;;1.30;1.20;;;17.70;59.10;;;;;;5055324;28;20265;-62
2023/01/07 01:37:21;;;;;;;1.52;1.17;;;17.60;59.00;;;;;;5055591;28;20544;-63
2023/01/07 01:39:46;;;;;;;1.30;1.20;;;17.70;59.00;;;;;;5054446;28;20233;-62
2023/01/07 01:42:16;;;;;;;1.20;1.10;;;17.70;59.10;;;;;;5055881;28;20267;-63
2023/01/07 01:45:00;;;;;;;1.17;1.00;;;17.70;59.10;;;;;;5053813;28;20183;-62
2023/01/07 01:47:50;;;;;;;1.38;1.27;;;17.70;59.10;;;;;;5054458;28;20206;-62
2023/01/07 01:50:25;;;;;;;1.08;1.05;;;17.70;59.10;;;;;;5055150;28;20626;-62
2023/01/07 01:52:54;;;;;;;1.92;1.30;;;17.70;59.10;;;;;;5053427;28;20933;-62
2023/01/07 01:55:22;;;;;;;1.20;1.10;;;17.70;59.00;;;;;;5053326;28;20211;-62
2023/01/07 01:57:49;;;;;;;1.40;1.30;;;17.70;59.00;;;;;;5054615;28;20533;-62
2023/01/07 02:00:15;;;;;;;1.70;1.10;;;17.70;59.60;;;;;;5053206;28;20175;-62
2023/01/07 02:02:51;;;;;;;1.25;1.10;;;17.60;59.00;;;;;;5054630;28;20662;-62
2023/01/07 02:05:17;;;;;;;1.30;1.20;;;17.60;59.00;;;;;;5053870;28;20186;-63
2023/01/07 02:07:42;;;;;;;1.15;1.10;;;17.60;59.00;;;;;;5053815;28;20167;-62
2023/01/07 02:10:10;;;;;;;1.33;1.25;;;17.60;59.00;;;;;;5054730;28;20605;-62
2023/01/07 02:12:38;;;;;;;1.13;1.02;;;17.60;59.00;;;;;;5054365;28;20171;-62
2023/01/07 02:15:11;;;;;;;1.45;1.20;;;17.60;59.00;;;;;;5054081;28;20301;-62
2023/01/07 02:18:04;;;;;;;1.23;1.13;;;17.60;59.00;;;;;;5054268;28;20708;-63
2023/01/07 02:20:51;;;;;;;1.40;1.30;;;17.60;59.00;;;;;;5054213;28;20219;-62
2023/01/07 02:23:47;;;;;;;1.00;0.90;;;17.60;58.90;;;;;;5054257;28;20175;-62
2023/01/07 02:26:44;;;;;;;1.20;1.10;;;17.60;58.90;;;;;;5053472;28;20517;-62
2023/01/07 02:29:21;;;;;;;1.52;1.30;;;17.60;59.00;;;;;;5053674;28;20167;-62
2023/01/07 02:32:08;;;;;;;1.20;1.10;;;17.60;59.00;;;;;;5052869;28;20182;-62
2023/01/07 02:34:42;;;;;;;1.45;1.23;;;17.60;58.90;;;;;;5052736;28;20214;-62
2023/01/07 02:37:23;;;;;;;1.48;1.38;;;17.60;59.00;;;;;;5053827;28;20260;-62
2023/01/07 02:40:21;;;;;;;1.30;1.20;;;17.60;58.90;;;;;;5054069;28;20175;-62
2023/01/07 02:43:10;;;;;;;1.45;1.23;;;17.60;58.90;;;;;;5053252;28;20176;-62
2023/01/07 02:45:43;;;;;;;1.15;1.05;;;17.60;58.90;;;;;;5053780;28;20217;-62
2023/01/07 02:48:09;;;;;;;1.60;1.35;;;17.60;58.90;;;;;;5053076;28;20186;-62
2023/01/07 02:50:35;;;;;;;1.52;1.42;;;17.60;58.90;;;;;;5051826;28;20653;-62
2023/01/07 02:53:00;;;;;;;1.58;1.48;;;17.60;58.90;;;;;;5053997;28;20183;-62
2023/01/07 02:55:36;;;;;;;1.40;1.30;;;17.60;58.90;;;;;;5053714;28;20222;-62
2023/01/07 02:58:23;;;;;;;1.38;1.20;;;17.60;58.90;;;;;;5052123;28;20544;-62
2023/01/07 03:01:09;;;;;;;1.33;1.23;;;17.60;58.90;;;;;;5053417;28;20175;-62
2023/01/07 03:03:56;;;;;;;1.50;1.27;;;17.60;58.90;;;;;;5052965;28;20182;-62
2023/01/07 03:06:40;;;;;;;1.30;1.20;;;17.50;58.80;;;;;;5053636;28;20194;-62
2023/01/07 03:09:16;;;;;;;1.88;1.30;;;17.60;58.90;;;;;;5054221;28;20179;-62
2023/01/07 03:11:46;;;;;;;1.38;1.20;;;17.50;58.80;;;;;;5051125;28;20179;-62
2023/01/07 03:14:33;;;;;;;2.05;1.50;;;17.50;58.80;;;;;;5052376;28;20203;-62
2023/01/07 03:17:01;;;;;;;1.25;1.10;;;17.50;58.80;;;;;;5053311;28;20182;-62
2023/01/07 03:19:28;;;;;;;1.17;1.08;;;17.50;58.80;;;;;;5051664;28;20241;-62
2023/01/07 03:21:54;;;;;;;1.17;1.08;;;17.50;58.80;;;;;;5051942;28;20178;-62
2023/01/07 03:24:19;;;;;;;1.23;1.23;;;17.50;58.80;;;;;;5051945;28;20183;-62
2023/01/07 03:26:47;;;;;;;1.30;1.20;;;17.50;58.80;;;;;;5051580;28;20177;-62
2023/01/07 03:29:13;;;;;;;1.30;1.20;;;17.50;58.80;;;;;;5053300;28;20190;-62
2023/01/07 03:31:45;;;;;;;1.45;1.35;;;17.50;58.80;;;;;;5051058;28;20175;-62
2023/01/07 03:34:15;;;;;;;2.15;1.27;;;17.50;58.80;;;;;;5052098;28;20254;-62
2023/01/07 03:36:43;;;;;;;1.70;1.38;;;17.50;58.80;;;;;;5051901;28;20179;-63
2023/01/07 03:39:10;;;;;;;1.20;1.20;;;17.50;58.80;;;;;;5052595;28;20179;-62
2023/01/07 03:44:21;;;;;;;1.30;1.20;;;17.50;58.80;;;;;;5052273;28;20660;-62
2023/01/07 03:46:47;;;;;;;1.00;1.00;;;17.50;58.80;;;;;;5051966;28;20171;-62
2023/01/07 03:49:12;;;;;;;1.17;1.08;;;17.50;58.80;;;;;;5053062;28;20182;-62
2023/01/07 03:51:38;;;;;;;1.00;0.95;;;17.50;58.80;;;;;;5052525;28;20182;-61
2023/01/07 03:54:04;;;;;;;1.27;1.20;;;17.50;58.80;;;;;;5052379;28;20203;-62
2023/01/07 03:56:29;;;;;;;1.85;1.35;;;17.50;58.80;;;;;;5052945;28;20712;-62
2023/01/07 03:58:55;;;;;;;1.30;1.20;;;17.50;58.80;;;;;;5052626;28;20194;-62
2023/01/07 04:01:20;;;;;;;1.52;1.33;;;17.50;58.80;;;;;;5052431;28;20561;-62
2023/01/07 04:03:46;;;;;;;1.33;1.23;;;17.50;58.80;;;;;;5052660;28;20629;-62
2023/01/07 04:06:11;;;;;;;1.15;1.05;;;17.50;58.80;;;;;;5052489;28;20607;-62
2023/01/07 04:08:37;;;;;;;1.23;1.13;;;17.50;58.80;;;;;;5051982;28;20171;-62
2023/01/07 04:11:02;;;;;;;1.70;1.10;;;17.50;58.80;;;;;;5052718;28;20271;-62
2023/01/07 04:13:28;;;;;;;1.42;1.08;;;17.50;58.80;;;;;;5052625;28;20202;-62
2023/01/07 04:15:53;;;;;;;1.05;1.00;;;17.40;58.70;;;;;;5052160;28;20175;-62
2023/01/07 04:18:19;;;;;;;1.52;0.90;;;17.50;58.80;;;;;;5052706;28;20171;-63
2023/01/07 04:20:46;;;;;;;1.15;1.08;;;17.50;58.80;;;;;;5052115;28;20750;-62
2023/01/07 04:23:12;;;;;;;1.23;1.10;;;17.40;58.70;;;;;;5052171;28;20190;-62
2023/01/07 04:25:38;;;;;;;1.02;1.00;;;17.40;58.70;;;;;;5055884;28;20550;-62
2023/01/07 04:28:03;;;;;;;1.30;1.20;;;17.40;59.30;;;;;;5055881;28;20648;-62
2023/01/07 04:30:29;;;;;;;1.17;1.10;;;17.40;58.70;;;;;;5056687;28;20262;-62
2023/01/07 04:32:54;;;;;;;1.08;1.08;;;17.40;58.70;;;;;;5056348;28;20621;-62
2023/01/07 04:35:20;;;;;;;0.90;0.90;;;17.40;58.70;;;;;;5055685;28;20214;-63
2023/01/07 04:37:45;;;;;;;1.30;1.20;;;17.40;58.70;;;;;;5056205;28;20254;-62
2023/01/07 04:40:11;;;;;;;1.17;1.08;;;17.40;58.70;;;;;;5056348;28;20266;-63
2023/01/07 04:42:36;;;;;;;2.38;0.93;;;17.40;58.70;;;;;;5055735;28;20250;-62
2023/01/07 04:45:02;;;;;;;1.13;1.00;;;17.40;58.70;;;;;;5056671;28;20202;-62
2023/01/07 04:47:28;;;;;;;1.92;1.20;;;17.40;58.70;;;;;;5056429;28;20525;-62
2023/01/07 04:49:53;;;;;;;1.30;1.20;;;17.40;58.70;;;;;;5055629;28;20190;-61
2023/01/07 04:52:19;;;;;;;1.48;1.27;;;17.40;58.70;;;;;;5056688;28;20178;-62
2023/01/07 04:54:44;;;;;;;1.30;1.20;;;17.40;58.70;;;;;;5055803;28;20210;-62
2023/01/07 04:57:10;;;;;;;1.15;1.05;;;17.40;58.70;;;;;;5055846;28;20197;-62
2023/01/07 04:59:35;;;;;;;1.63;1.00;;;17.40;58.70;;;;;;5055846;28;20579;-62
2023/01/07 05:02:01;;;;;;;1.25;1.15;;;17.40;58.60;;;;;;5055877;28;20167;-62
2023/01/07 05:04:26;;;;;;;1.55;0.90;;;17.40;58.70;;;;;;5055406;28;20171;-62
2023/01/07 05:06:52;;;;;;;1.73;1.10;;;17.40;58.60;;;;;;5055916;28;20167;-62
2023/01/07 05:09:17;;;;;;;1.15;1.05;;;17.40;59.30;;;;;;5055579;28;20637;-62
2023/01/07 05:11:43;;;;;;;1.13;1.10;;;17.40;58.60;;;;;;5055344;28;20198;-62
2023/01/07 05:14:10;;;;;;;1.10;1.00;;;17.40;58.70;;;;;;5055930;28;20289;-62
2023/01/07 05:16:35;;;;;;;0.90;0.90;;;17.40;58.60;;;;;;5054268;28;20175;-62
2023/01/07 05:19:01;;;;;;;1.17;1.08;;;17.40;58.70;;;;;;5055100;28;20226;-62
2023/01/07 05:21:26;;;;;;;1.02;1.00;;;17.30;58.60;;;;;;5055940;28;20171;-62
2023/01/07 05:23:52;;;;;;;1.40;0.85;;;17.40;58.70;;;;;;5055287;28;20175;-62
2023/01/07 05:26:18;;;;;;;0.95;0.95;;;17.40;58.60;;;;;;5055300;28;20262;-62
2023/01/07 05:28:43;;;;;;;1.20;1.10;;;17.30;58.60;;;;;;5055515;28;20171;-62
2023/01/07 05:31:09;;;;;;;2.25;1.25;;;17.30;58.60;;;;;;5055283;28;20258;-62
2023/01/07 05:33:34;;;;;;;1.10;1.00;;;17.30;58.60;;;;;;5055001;28;20549;-62
2023/01/07 05:36:00;;;;;;;1.40;1.27;;;17.30;58.60;;;;;;5055040;28;20581;-62
2023/01/07 05:38:25;;;;;;;1.10;1.00;;;17.30;58.60;;;;;;5055090;28;20524;-63
2023/01/07 05:40:51;;;;;;;1.60;1.10;;;17.30;58.60;;;;;;5055297;28;20634;-63
2023/01/07 05:43:17;;;;;;;1.00;1.00;;;17.30;58.60;;;;;;5055270;28;20178;-63
2023/01/07 05:45:44;;;;;;;0.95;0.90;;;17.30;58.60;;;;;;5054416;28;20175;-62
2023/01/07 05:48:09;;;;;;;0.93;0.93;;;17.30;58.60;;;;;;5055600;28;20263;-62
2023/01/07 05:50:35;;;;;;;1.00;0.90;;;17.30;58.60;;;;;;5054934;28;20214;-62
2023/01/07 05:53:01;;;;;;;1.23;1.10;;;17.30;58.60;;;;;;5054337;28;20258;-62
2023/01/07 05:55:26;;;;;;;1.17;1.17;;;17.30;58.60;;;;;;5054944;28;20218;-62
2023/01/07 05:57:52;;;;;;;0.90;0.90;;;17.30;58.60;;;;;;5054643;28;20182;-62
2023/01/07 06:00:17;;;;;;;1.00;0.80;;;17.20;58.60;;;;;;5055142;28;20175;-62
2023/01/07 06:02:43;;;;;;;1.00;1.00;;;17.30;58.60;;;;;;5054719;28;20179;-62
2023/01/07 06:05:08;;;;;;;1.30;1.02;;;17.30;58.60;;;;;;5055120;28;20182;-63
2023/01/07 06:07:34;;;;;;;1.10;1.10;;;17.30;58.60;;;;;;5054238;28;20171;-62
2023/01/07 06:10:00;;;;;;;1.10;0.77;;;17.30;58.60;;;;;;5054770;28;20187;-62
2023/01/07 06:12:25;;;;;;;1.17;1.08;;;17.30;58.60;;;;;;5054532;28;20540;-62
2023/01/07 06:14:51;;;;;;;1.20;1.10;;;17.20;58.50;;;;;;5054018;28;20695;-62
2023/01/07 06:17:16;;;;;;;1.55;1.10;;;17.30;58.60;;;;;;5054788;28;20178;-62
2023/01/07 06:19:42;;;;;;;1.00;1.00;;;17.30;58.60;;;;;;5054005;28;20272;-63
2023/01/07 06:22:10;;;;;;;1.25;0.90;;;17.30;58.60;;;;;;5054108;28;20171;-63
2023/01/07 06:24:36;;;;;;;0.90;0.90;;;17.20;58.50;;;;;;5054224;28;20207;-62
2023/01/07 06:27:01;;;;;;;0.98;0.98;;;17.30;58.60;;;;;;5054761;28;20198;-62
2023/01/07 06:29:27;;;;;;;1.02;1.02;;;17.20;58.50;;;;;;5054079;28;20240;-63
2023/01/07 06:31:52;;;;;;;0.80;0.80;;;17.30;58.60;;;;;;5054170;28;20703;-61
2023/01/07 06:34:18;;;;;;;3.85;1.02;;;17.20;58.50;;;;;;5054100;28;20210;-64
2023/01/07 06:36:43;;;;;;;1.20;1.10;;;17.20;58.50;;;;;;5053668;28;20272;-63
2023/01/07 06:39:09;;;;;;;1.08;1.08;;;17.20;58.50;;;;;;5054295;28;20537;-62
2023/01/07 06:41:35;;;;;;;1.05;1.00;;;17.20;58.50;;;;;;5053458;28;20190;-63
2023/01/07 06:44:00;;;;;;;1.45;1.02;;;17.20;58.50;;;;;;5054146;28;20544;-63
2023/01/07 06:46:26;;;;;;;0.73;0.73;;;17.20;58.50;;;;;;5053437;28;20179;-63
2023/01/07 06:48:51;;;;;;;0.98;0.98;;;17.20;58.50;;;;;;5052855;28;20179;-62
2023/01/07 06:51:17;;;;;;;0.80;0.80;;;17.20;58.50;;;;;;5054024;28;20175;-61
2023/01/07 06:53:43;;;;;;;0.80;0.80;;;17.20;58.50;;;;;;5053500;28;20207;-62
2023/01/07 06:56:08;;;;;;;1.23;0.95;;;17.20;58.50;;;;;;5053360;28;20576;-62
2023/01/07 06:58:34;;;;;;;1.75;1.33;;;17.20;58.50;;;;;;5053760;28;20178;-62
2023/01/07 07:01:04;;;;;;;1.20;1.10;;;17.20;58.50;;;;;;5053761;28;20163;-62
2023/01/07 07:03:29;;;;;;;1.08;1.02;;;17.20;58.50;;;;;;5053318;28;20171;-62
2023/01/07 07:05:55;;;;;;;1.63;1.20;;;17.20;58.40;;;;;;5053389;28;20228;-62
2023/01/07 07:08:20;;;;;;;1.30;0.95;;;17.20;58.50;;;;;;5053363;28;20203;-62
2023/01/07 07:10:46;;;;;;;1.00;0.90;;;17.20;58.40;;;;;;5053120;28;20233;-61
2023/01/07 07:13:11;;;;;;;1.02;1.00;;;17.20;58.40;;;;;;5053718;28;20210;-62
2023/01/07 07:15:37;;;;;;;0.90;0.90;;;17.20;58.40;;;;;;5052877;28;20311;-62
2023/01/07 07:18:03;;;;;;;1.20;1.10;;;17.20;58.40;;;;;;5052933;28;20190;-62
2023/01/07 07:20:28;;;;;;;1.00;0.93;;;17.20;58.40;;;;;;5053265;28;20219;-62
2023/01/07 07:22:54;;;;;;;0.90;0.90;;;17.20;58.40;;;;;;5052842;28;20250;-62
2023/01/07 07:25:19;;;;;;;0.90;0.90;;;17.20;58.40;;;;;;5053073;28;20179;-62
2023/01/07 07:27:45;;;;;;;1.20;1.10;;;17.20;58.40;;;;;;5053037;28;20202;-62
2023/01/07 07:30:12;;;;;;;0.98;0.88;;;17.20;58.40;;;;;;5053377;28;20187;-62
2023/01/07 07:32:37;;;;;;;0.80;0.80;;;17.20;58.40;;;;;;5052557;28;20201;-62
2023/01/07 07:35:03;;;;;;;0.73;0.73;;;17.20;58.40;;;;;;5053218;28;20677;-63
2023/01/07 07:37:29;;;;;;;0.80;0.80;;;17.20;58.40;;;;;;5052960;28;20171;-63
2023/01/07 07:39:54;;;;;;;1.25;0.85;;;17.20;58.30;;;;;;5052463;28;20696;-61
2023/01/07 07:42:20;;;;;;;0.88;0.88;;;17.20;58.40;;;;;;5053593;28;20202;-61
2023/01/07 07:44:45;;;;;;;1.10;1.10;;;17.10;58.30;;;;;;5052683;28;20258;-61
2023/01/07 07:47:11;;;;;;;0.80;0.80;;;17.10;58.30;;;;;;5052785;28;20297;-61
2023/01/07 07:49:36;;;;;;;0.90;0.90;;;17.10;58.30;;;;;;5052729;28;20171;-60
2023/01/07 07:52:02;;;;;;;1.08;0.93;;;17.10;58.30;;;;;;5052114;28;20221;-60
2023/01/07 07:54:28;;;;;;;1.63;0.95;;;17.10;58.30;;;;;;5053014;28;20211;-61
2023/01/07 07:56:53;;;;;;;0.80;0.80;;;17.10;58.30;;;;;;5052649;28;20250;-60
2023/01/07 07:59:19;;;;;;;0.95;0.95;;;17.10;58.20;;;;;;5052203;28;20182;-61
2023/01/07 08:01:44;;;;;;;1.05;0.88;;;17.10;58.20;;;;;;5052637;28;20167;-61
2023/01/07 08:04:10;;;;;;;0.82;0.82;;;17.10;58.30;;;;;;5052703;28;20174;-60
2023/01/07 08:06:35;;;;;;;1.08;0.93;;;17.10;58.20;;;;;;5052443;28;20171;-60
2023/01/07 08:09:01;;;;;;;1.27;1.05;;;17.10;58.20;;;;;;5053027;28;20186;-62
2023/01/07 08:11:26;;;;;;;1.20;1.10;;;17.10;58.20;;;;;;5052850;28;20178;-61
2023/01/07 08:13:52;;;;;;;0.73;0.73;;;17.10;58.20;;;;;;5052175;28;20210;-61
2023/01/07 08:16:17;;;;;;;1.10;0.93;;;17.10;58.20;;;;;;5053051;28;20175;-62
2023/01/07 08:18:43;;;;;;;1.33;0.90;;;17.10;58.20;;;;;;5052395;28;20607;-61
2023/01/07 08:21:08;;;;;;;0.75;0.75;;;17.10;58.20;;;;;;5052285;28;20607;-62
2023/01/07 08:23:34;;;;;;;1.05;1.05;;;17.10;58.20;;;;;;5052405;28;20333;-61
2023/01/07 08:26:01;;;;;;;1.60;0.90;;;17.10;58.20;;;;;;5052381;28;20185;-61
2023/01/07 08:28:27;;;;;;;1.10;0.80;;;17.10;58.10;;;;;;5052024;28;20648;-61
2023/01/07 08:30:53;;;;;;;0.85;0.85;;;17.10;58.10;;;;;;5052320;28;20225;-61
2023/01/07 08:33:18;;;;;;;1.02;0.93;;;17.10;58.10;;;;;;5052442;28;20175;-74
2023/01/07 08:35:44;;;;;;;1.63;1.00;;;17.10;58.20;;;;;;5051625;28;20580;-63
2023/01/07 08:38:09;;;;;;;3.22;1.10;;;17.10;58.50;;;;;;5053312;28;20626;-65
2023/01/07 08:40:35;;;;;;;1.15;0.90;;;17.10;58.80;;;;;;5052024;28;20179;-69
2023/01/07 08:43:02;;;;;;;3.05;0.90;;;17.10;58.60;;;;;;5052236;28;20198;-69
2023/01/07 08:45:28;;;;;;;4.68;1.10;;;17.10;58.70;;;;;;5052403;28;20637;-68
2023/01/07 08:47:56;;;;;;;2.17;0.93;;;17.10;58.60;;;;;;5051791;28;20179;-66
2023/01/07 08:50:24;;;;;;;1.63;1.10;;;17.10;58.80;;;;;;5051262;28;20221;-69
2023/01/07 08:52:49;;;;;;;1.50;1.10;;;17.10;58.60;;;;;;5051827;28;20248;-69
2023/01/07 08:55:15;;;;;;;1.38;0.90;;;17.10;58.60;;;;;;5051203;28;20598;-69
2023/01/07 08:57:40;;;;;;;1.17;0.68;;;17.10;58.50;;;;;;5051358;28;20171;-69
2023/01/07 09:00:06;;;;;;;1.35;0.95;;;17.20;58.80;;;;;;5051645;28;20179;-69
2023/01/07 09:02:32;;;;;;;2.85;1.08;;;17.20;58.60;;;;;;5050915;28;20186;-71
2023/01/07 09:04:57;;;;;;;2.92;1.20;;;17.20;58.70;;;;;;5051904;28;20183;-69
2023/01/07 09:07:23;;;;;;;2.05;1.00;;;17.20;58.60;;;;;;5052178;28;20180;-71
2023/01/07 09:09:48;;;;;;;1.35;1.23;;;17.20;58.80;;;;;;5051910;28;20502;-65
2023/01/07 09:12:14;;;;;;;1.55;0.85;;;17.20;58.70;;;;;;5055698;28;20164;-65
2023/01/07 09:14:40;;;;;;;2.75;1.30;;;17.20;58.70;;;;;;5055113;28;20253;-69
2023/01/07 09:17:05;;;;;;;1.10;1.00;;;17.20;59.10;;;;;;5055211;28;20171;-70
2023/01/07 09:19:31;;;;;;;2.25;1.00;;;17.20;58.90;;;;;;5055169;28;20231;-70
2023/01/07 09:21:56;;;;;;;1.13;1.02;;;17.20;58.90;;;;;;5055704;28;20587;-68
2023/01/07 09:24:22;;;;;;;1.23;1.10;;;17.20;58.90;;;;;;5055158;28;20544;-69
2023/01/07 09:26:47;;;;;;;1.75;0.98;;;17.20;58.80;;;;;;5055451;28;20626;-68
2023/01/07 09:29:13;;;;;;;1.42;0.85;;;17.20;59.00;;;;;;5055464;28;20179;-69
2023/01/07 09:31:38;;;;;;;1.83;0.90;;;17.20;58.90;;;;;;5054740;28;20644;-69
2023/01/07 09:34:04;;;;;;;0.88;0.80;;;17.20;58.90;;;;;;5055094;28;20217;-72
2023/01/07 09:36:29;;;;;;;2.05;0.90;;;17.20;59.00;;;;;;5055312;28;20179;-71
2023/01/07 09:38:55;;;;;;;2.05;1.20;;;17.20;59.10;;;;;;5054650;28;20654;-68
2023/01/07 09:41:42;;;;;;;1.65;0.95;;;17.20;59.00;;;;;;5055421;28;20171;-69
2023/01/07 09:44:26;;;;;;;0.80;0.80;;;17.20;59.00;;;;;;5054088;28;20721;-69
2023/01/07 09:46:52;;;;;;;2.15;0.90;;;17.20;58.90;;;;;;5038125;28;20505;-68
2023/01/07 09:49:18;;;;;;;2.15;1.00;;;17.20;58.80;;;;;;5037492;28;20179;-67
2023/01/07 09:52:04;;;;;;;0.98;0.90;;;17.20;59.40;;;;;;5053232;28;20986;-68
2023/01/07 09:54:32;;;;;;;1.10;1.00;;;17.20;58.90;;;;;;5054913;28;20202;-66
2023/01/07 09:56:58;;;;;;;1.00;0.90;;;17.20;58.90;;;;;;5053539;28;20171;-63
2023/01/07 09:59:23;;;;;;;5.05;1.70;;;17.20;58.90;;;;;;5053577;28;20178;-65
2023/01/07 10:02:17;;;;;;;5.88;1.88;;;17.20;59.40;;;;;;5036119;28;20417;-68
2023/01/07 10:05:13;;;;;;;4.60;1.65;;;17.20;59.90;;;;;;5051483;28;20194;-68
2023/01/07 10:07:49;;;;;;;6.65;1.60;;;17.20;59.50;;;;;;5047481;28;20215;-70
2023/01/07 10:10:23;;;;;;;2.42;1.25;;;17.30;59.50;;;;;;5053766;28;20178;-71
2023/01/07 10:13:03;;;;;;;7.45;1.42;;;17.20;59.20;;;;;;5052959;28;20185;-78
2023/01/07 10:15:49;;;;;;;5.38;1.25;;;17.20;59.40;;;;;;5053450;28;20230;-78
2023/01/07 10:18:32;;;;;;;2.88;1.17;;;17.20;59.30;;;;;;5053535;28;20171;-80
2023/01/07 10:21:13;;;;;;;6.25;1.50;;;17.20;59.20;;;;;;5052776;28;20227;-80
2023/01/07 10:23:40;;;;;;;3.45;1.55;;;17.20;59.20;;;;;;5053929;28;20167;-76
2023/01/07 10:26:30;;;;;;;5.30;1.27;;;17.20;59.20;;;;;;5036484;28;20174;-78
2023/01/07 10:28:58;;;;;;;5.28;1.30;;;17.20;59.00;;;;;;5045457;28;20191;-78
2023/01/07 10:31:25;;;;;;;2.95;1.23;;;17.10;59.10;;;;;;5054050;28;20175;-76
2023/01/07 10:33:50;;;;;;;3.42;1.35;;;17.20;59.00;;;;;;5051996;28;20182;-77
2023/01/07 10:36:27;;;;;;;3.92;1.67;;;17.10;59.00;;;;;;5054225;28;20233;-78
2023/01/07 10:39:11;;;;;;;3.10;1.40;;;17.10;59.00;;;;;;5052360;28;20178;-75
2023/01/07 10:42:00;;;;;;;3.30;1.20;;;17.10;59.00;;;;;;5053364;28;20621;-76
2023/01/07 10:44:39;;;;;;;2.33;1.45;;;17.10;58.80;;;;;;5037682;28;20637;-74
2023/01/07 10:47:10;;;;;;;1.67;1.00;;;17.10;58.70;;;;;;5053829;28;20583;-74
2023/01/07 10:49:40;;;;;;;1.85;1.05;;;17.10;58.70;;;;;;5053364;28;20181;-73
2023/01/07 10:52:21;;;;;;;3.35;1.50;;;17.10;58.70;;;;;;5052522;28;20225;-74
2023/01/07 10:55:02;;;;;;;2.25;1.25;;;17.20;58.70;;;;;;5051543;28;20225;-76
2023/01/07 10:57:28;;;;;;;5.15;1.50;;;17.20;58.60;;;;;;5053757;28;20277;-76
2023/01/07 10:59:58;;;;;;;2.20;1.20;;;17.20;58.50;;;;;;5035973;28;20701;-74
2023/01/07 11:02:26;;;;;;;2.75;1.10;;;17.30;58.40;;;;;;5036133;28;20175;-75
2023/01/07 11:04:52;;;;;;;1.60;1.10;;;17.30;58.40;;;;;;5053324;28;20691;-74
2023/01/07 11:07:29;;;;;;;3.72;1.55;;;17.30;58.50;;;;;;5051604;28;20263;-73
2023/01/07 11:09:55;;;;;;;4.78;1.20;;;17.30;58.50;;;;;;5052765;28;20177;-76
2023/01/07 11:12:28;;;;;;;2.83;1.00;;;17.30;58.40;;;;;;5053820;28;20529;-70
2023/01/07 11:14:55;;;;;;;3.72;1.15;;;17.30;58.40;;;;;;5052106;28;20230;-78
2023/01/07 11:17:39;;;;;;;3.75;1.50;;;17.30;58.40;;;;;;5035473;28;20568;-77
2023/01/07 11:20:05;;;;;;;2.42;1.13;;;17.40;58.40;;;;;;5052041;28;20230;-75
2023/01/07 11:22:32;;;;;;;1.77;1.08;;;17.40;58.40;;;;;;5053014;28;20175;-77
2023/01/07 11:24:59;;;;;;;1.70;0.90;;;17.40;58.40;;;;;;5053063;28;20187;-77
2023/01/07 11:27:27;;;;;;;1.50;1.10;;;17.40;58.40;;;;;;5053404;28;20680;-75
2023/01/07 11:30:25;;;;;;;2.35;1.10;;;17.50;58.50;;;;;;5051382;28;20191;-75
2023/01/07 11:33:04;;;;;;;2.88;1.25;;;17.50;58.50;;;;;;5051665;28;20266;-75
2023/01/07 11:35:30;;;;;;;2.75;1.00;;;17.50;58.50;;;;;;5051942;28;20305;-73
2023/01/07 11:37:56;;;;;;;2.85;1.17;;;17.50;58.50;;;;;;5051306;28;20258;-77
2023/01/07 11:40:29;;;;;;;2.03;1.15;;;17.50;58.60;;;;;;5052260;28;20262;-73
2023/01/07 11:42:57;;;;;;;1.85;1.10;;;17.50;58.70;;;;;;5052534;28;20656;-73
2023/01/07 11:45:48;;;;;;;2.03;1.13;;;17.50;58.70;;;;;;5051440;28;20210;-72
2023/01/07 11:48:26;;;;;;;1.60;0.82;;;17.50;58.80;;;;;;5051740;28;20182;-71
2023/01/07 11:50:52;;;;;;;1.40;1.10;;;17.50;58.60;;;;;;5036934;28;20182;-72
2023/01/07 11:53:17;;;;;;;1.77;1.10;;;17.50;58.50;;;;;;5052676;28;20540;-72
2023/01/07 11:56:09;;;;;;;3.67;1.17;;;17.50;59.00;;;;;;5052595;28;20226;-65
2023/01/07 11:58:45;;;;;;;2.28;1.10;;;17.40;58.80;;;;;;5049486;28;20179;-72
2023/01/07 12:01:16;;;;;;;2.08;1.13;;;17.50;59.20;;;;;;5053158;28;20186;-69
2023/01/07 12:04:00;;;;;;;3.13;1.05;;;17.40;58.90;;;;;;5052441;28;20176;-69
2023/01/07 12:06:30;;;;;;;3.13;0.90;;;17.50;58.80;;;;;;5051392;28;20175;-69
2023/01/07 12:09:21;;;;;;;1.40;1.20;;;17.50;58.70;;;;;;5053039;28;20262;-69
2023/01/07 12:11:47;;;;;;;1.50;1.00;;;17.50;58.60;;;;;;5051127;28;20201;-70
2023/01/07 12:14:15;;;;;;;2.20;1.10;;;17.50;58.60;;;;;;5052021;28;20203;-71
2023/01/07 12:16:41;;;;;;;3.38;1.33;;;17.60;58.60;;;;;;5052031;28;20179;-71
2023/01/07 12:19:38;;;;;;;1.00;0.90;;;17.50;58.50;;;;;;5050829;28;20230;-71
2023/01/07 12:22:25;;;;;;;2.58;0.70;;;17.50;58.50;;;;;;5051816;28;20301;-70
2023/01/07 12:25:02;;;;;;;2.47;1.13;;;17.60;58.50;;;;;;5052242;28;20753;-70
2023/01/07 12:27:36;;;;;;;3.10;1.00;;;17.60;58.50;;;;;;5052297;28;20270;-70
2023/01/07 12:30:23;;;;;;;0.80;0.80;;;17.60;58.50;;;;;;5051743;28;20177;-70
2023/01/07 12:33:05;;;;;;;0.85;0.80;;;17.50;58.50;;;;;;5051895;28;20253;-67
2023/01/07 12:35:32;;;;;;;1.30;0.90;;;17.60;58.60;;;;;;5051131;28;20574;-69
2023/01/07 12:38:04;;;;;;;1.55;0.75;;;17.60;58.70;;;;;;5034958;28;20176;-70
2023/01/07 12:40:33;;;;;;;1.10;0.90;;;17.60;58.80;;;;;;5034892;28;20287;-74
2023/01/07 12:43:08;;;;;;;2.22;0.70;;;17.60;58.60;;;;;;5035095;28;20225;-75
2023/01/07 12:45:40;;;;;;;1.13;0.80;;;17.60;58.50;;;;;;5053649;28;20198;-72
2023/01/07 12:48:10;;;;;;;2.20;1.25;;;17.60;58.50;;;;;;5056168;28;20176;-72
2023/01/07 12:50:39;;;;;;;2.05;1.00;;;17.60;58.40;;;;;;5039036;28;20254;-72
2023/01/07 12:53:11;;;;;;;2.28;0.70;;;17.60;58.30;;;;;;5038541;28;20175;-73
2023/01/07 12:55:40;;;;;;;1.33;0.93;;;17.60;58.40;;;;;;5054260;28;20207;-75
2023/01/07 12:58:31;;;;;;;1.13;0.68;;;17.70;58.40;;;;;;5038568;28;20175;-84
2023/01/07 13:01:15;;;;;;;0.98;0.85;;;17.60;58.60;;;;;;5055033;28;20178;-76
2023/01/07 13:04:03;;;;;;;2.17;1.08;;;17.60;58.40;;;;;;5040022;28;20660;-75
2023/01/07 13:06:45;;;;;;;2.45;1.00;;;17.60;58.60;;;;;;5055801;28;20262;-76